createdAt,value
2023-03-29T00:04:19.104Z,3.9
2023-03-29T00:14:21.659Z,3.9
2023-03-29T00:24:23.822Z,3.8
2023-03-29T00:44:28.176Z,3.7
2023-03-29T01:04:32.996Z,3.8
2023-03-29T01:24:36.844Z,3.9
2023-03-29T01:44:41.486Z,3.9
2023-03-29T05:15:27.511Z,5.1
2023-03-29T05:35:31.713Z,5.2
2023-03-29T06:15:40.684Z,5.4
2023-03-29T06:25:42.800Z,5.6
2023-03-29T06:35:44.648Z,5.7
2023-03-29T06:45:46.550Z,5.9
2023-03-29T07:05:51.010Z,6.3
2023-03-29T07:15:53.633Z,6.6
2023-03-29T07:25:56.129Z,6.8
2023-03-29T07:35:58.129Z,7
2023-03-29T07:46:00.381Z,7.2
2023-03-29T07:56:02.364Z,7.5
2023-03-29T08:06:04.101Z,7.7
2023-03-29T08:16:06.334Z,7.9
2023-03-29T08:26:08.136Z,7.8
2023-03-29T10:56:40.645Z,9.7
2023-03-29T11:06:42.739Z,9.8
2023-03-29T11:16:45.284Z,10.1
2023-03-29T11:26:47.185Z,10.1
2023-03-29T11:46:52.314Z,11.2
2023-03-29T11:56:54.215Z,11.4
2023-03-29T12:26:59.533Z,12.2
2023-03-29T12:37:01.467Z,12.8
2023-03-29T12:57:06.250Z,12.9
2023-03-29T13:07:08.322Z,13
2023-03-29T13:17:18.028Z,12.9
2023-03-29T13:37:14.300Z,12.9
2023-03-29T13:57:18.374Z,13.2
2023-03-29T14:27:25.313Z,13.8
2023-03-29T15:07:34.054Z,13.8
2023-03-29T15:17:47.443Z,14
2023-03-29T15:27:38.484Z,13.8
2023-03-29T15:37:40.906Z,13.8
2023-03-29T15:47:43.342Z,13.8
2023-03-29T15:57:45.959Z,13.9
2023-03-29T16:07:47.763Z,13.8
2023-03-29T16:17:50.302Z,13.9
2023-03-29T16:27:52.657Z,13.9
2023-03-29T16:47:56.834Z,14
2023-03-29T16:57:58.859Z,13.9
2023-03-29T17:08:01.052Z,13.8
2023-03-29T17:18:02.847Z,13.8
2023-03-29T17:28:05.037Z,13.7
2023-03-29T17:38:07.084Z,13.7
2023-03-29T17:48:09.609Z,13.8
2023-03-29T17:58:11.402Z,13.9
2023-03-29T18:08:14.003Z,13.9
2023-03-29T18:18:16.052Z,13.7
2023-03-29T18:28:18.521Z,13.8
2023-03-29T18:38:20.222Z,13.7
2023-03-29T18:48:21.890Z,13.7
2023-03-29T18:58:24.113Z,13.6
2023-03-29T19:08:26.490Z,13.6
2023-03-29T19:18:28.610Z,13.7
2023-03-29T19:38:33.762Z,13.7
2023-03-29T19:48:36.324Z,13.6
2023-03-29T19:58:38.875Z,13.5
2023-03-29T20:08:41.130Z,13.5
2023-03-29T20:18:42.865Z,13.2
2023-03-29T20:28:44.610Z,13
2023-03-29T20:38:46.347Z,12.8
2023-03-29T20:48:48.665Z,12.7
2023-03-29T20:58:50.909Z,12.6
2023-03-29T21:08:53.515Z,12.5
2023-03-29T21:18:55.830Z,12.6
2023-03-29T21:28:57.890Z,12.6
2023-03-29T21:49:02.926Z,12.4
2023-03-29T21:59:05.148Z,12.4
2023-03-29T22:09:07.143Z,12.3
2023-03-29T22:19:30.752Z,12.2
2023-03-29T22:29:17.675Z,12.4
2023-03-29T22:39:19.774Z,12.5
2023-03-29T22:49:22.362Z,12.3
2023-03-29T22:59:24.429Z,12.3
2023-03-29T23:09:27.043Z,12.3
2023-03-29T23:19:29.307Z,12.2
2023-03-29T23:29:31.141Z,11.7
2023-03-29T23:39:33.666Z,11.3
2023-03-29T23:49:36.277Z,11.4
2023-03-29T23:59:38.757Z,12.8
